Time;durP1;ratioP1;P1;durP2;ratioP2;P2;SDS_P1;SDS_P2;PMS_P1;PMS_P2;Temp;Humidity;BMP_temperature;BMP_pressure;BME280_temperature;BME280_humidity;BME280_pressure;Samples;Min_cycle;Max_cycle;Signal;HPM_P1;HPM_P2
2021/12/07 00:00:55;;;;;;;5.85;4.38;;;2.20;99.90;;;;;;4907980;29;20055;-83
2021/12/07 00:03:21;;;;;;;5.07;3.88;;;3.20;99.90;;;;;;4925541;29;20051;-83
2021/12/07 00:05:48;;;;;;;7.10;4.50;;;2.80;99.90;;;;;;4927292;29;20047;-83
2021/12/07 00:08:14;;;;;;;5.30;4.10;;;2.00;99.90;;;;;;4911546;29;20047;-82
2021/12/07 00:10:41;;;;;;;5.95;4.60;;;2.80;99.90;;;;;;4912648;29;20051;-84
2021/12/07 00:13:09;;;;;;;5.43;4.43;;;2.00;99.90;;;;;;4924510;29;20109;-83
2021/12/07 00:15:36;;;;;;;5.80;4.20;;;2.00;99.90;;;;;;4905733;29;20058;-82
2021/12/07 00:18:03;;;;;;;6.00;4.57;;;2.90;99.90;;;;;;4903352;29;20043;-83
2021/12/07 00:20:30;;;;;;;6.13;4.82;;;3.50;99.90;;;;;;4913440;29;20047;-84
2021/12/07 00:22:59;;;;;;;5.82;4.35;;;1.90;99.90;;;;;;4920492;29;20616;-84
2021/12/07 00:25:25;;;;;;;8.02;4.70;;;2.00;99.90;;;;;;4924144;29;20135;-83
2021/12/07 00:27:52;;;;;;;6.50;4.97;;;3.40;99.90;;;;;;4927605;29;20394;-83
2021/12/07 00:30:18;;;;;;;9.35;5.20;;;1.90;99.90;;;;;;4925649;29;20066;-83
2021/12/07 00:32:51;;;;;;;7.43;5.43;;;3.50;99.90;;;;;;4919305;29;20051;-83
2021/12/07 00:37:48;;;;;;;9.35;5.50;;;2.00;99.90;;;;;;4924061;29;20043;-85
2021/12/07 00:40:17;;;;;;;7.00;5.35;;;2.00;99.90;;;;;;4925660;29;20047;-84
2021/12/07 00:42:43;;;;;;;6.40;5.22;;;3.50;99.90;;;;;;4929599;29;20480;-83
2021/12/07 00:45:10;;;;;;;7.95;5.95;;;2.90;99.90;;;;;;4925530;29;20054;-83
2021/12/07 00:47:36;;;;;;;8.73;6.20;;;2.10;99.90;;;;;;4924231;29;20047;-83
2021/12/07 00:50:04;;;;;;;8.45;6.05;;;2.10;99.90;;;;;;4920893;29;20348;-84
2021/12/07 00:52:30;;;;;;;10.13;7.00;;;2.10;99.90;;;;;;4925152;29;20054;-82
2021/12/07 00:54:55;;;;;;;9.30;6.78;;;2.10;99.90;;;;;;4922879;29;20402;-83
2021/12/07 00:57:21;;;;;;;9.95;7.03;;;2.20;99.90;;;;;;4907443;29;20086;-83
2021/12/07 00:59:47;;;;;;;9.77;6.80;;;2.20;99.90;;;;;;4911703;29;20054;-83
2021/12/07 01:02:13;;;;;;;10.68;7.28;;;3.80;99.90;;;;;;4920355;29;20047;-83
2021/12/07 01:04:40;;;;;;;9.82;7.05;;;3.30;99.90;;;;;;4928588;29;20046;-82
2021/12/07 01:07:17;;;;;;;10.43;7.80;;;2.20;99.90;;;;;;4892374;29;20050;-82
2021/12/07 01:26:11;;;;;;;13.07;9.13;;;2.20;99.90;;;;;;4925822;29;20126;-83
2021/12/07 01:28:39;;;;;;;13.63;9.20;;;2.30;99.90;;;;;;4916607;29;20050;-83
2021/12/07 01:39:30;;;;;;;13.57;9.27;;;2.30;99.90;;;;;;4925090;29;20058;-82
2021/12/07 01:42:44;;;;;;;12.70;8.93;;;3.90;99.90;;;;;;4923012;29;20110;-83
2021/12/07 01:59:54;;;;;;;14.88;9.55;;;3.40;99.90;;;;;;4918120;29;20060;-83
2021/12/07 02:02:23;;;;;;;17.48;8.68;;;2.50;99.90;;;;;;4879397;29;20103;-83
2021/12/07 02:04:49;;;;;;;18.25;9.85;;;3.50;99.90;;;;;;4906116;29;20052;-84
2021/12/07 02:07:15;;;;;;;14.20;8.25;;;2.70;99.90;;;;;;4870928;29;20086;-82
2021/12/07 02:09:46;;;;;;;14.23;8.35;;;2.50;99.90;;;;;;4889851;29;20560;-83
2021/12/07 02:12:13;;;;;;;16.85;9.55;;;4.00;99.90;;;;;;4889418;29;20048;-82
2021/12/07 02:14:40;;;;;;;16.63;9.57;;;3.00;99.90;;;;;;4879997;29;20470;-82
2021/12/07 02:17:09;;;;;;;14.63;9.13;;;2.60;99.90;;;;;;4901809;29;20088;-83
2021/12/07 02:19:36;;;;;;;14.82;8.48;;;3.70;99.90;;;;;;4889669;29;20063;-83
2021/12/07 02:22:02;;;;;;;16.00;8.73;;;2.70;99.90;;;;;;4904443;29;20056;-83
2021/12/07 02:24:29;;;;;;;14.98;8.57;;;2.70;99.90;;;;;;4902103;29;20056;-82
2021/12/07 02:26:56;;;;;;;13.60;8.30;;;3.20;99.90;;;;;;4905986;29;20051;-83
2021/12/07 02:29:22;;;;;;;13.50;5.88;;;3.80;99.90;;;;;;4906561;29;20060;-82
2021/12/07 02:31:50;;;;;;;13.25;4.57;;;2.90;99.90;;;;;;4886717;29;20139;-82
2021/12/07 02:34:16;;;;;;;11.57;3.78;;;3.10;99.90;;;;;;4894819;29;20048;-82
2021/12/07 02:36:43;;;;;;;8.82;3.47;;;3.30;99.90;;;;;;4906369;29;20051;-83
2021/12/07 02:39:10;;;;;;;8.20;2.65;;;3.40;99.90;;;;;;4879146;29;20071;-83
2021/12/07 02:41:37;;;;;;;14.32;2.92;;;3.40;99.90;;;;;;4895201;29;20048;-82
2021/12/07 02:44:07;;;;;;;8.75;2.70;;;4.90;99.90;;;;;;4889153;29;20045;-83
2021/12/07 02:46:36;;;;;;;7.80;2.55;;;3.50;99.90;;;;;;4910260;29;20253;-83
2021/12/07 02:49:04;;;;;;;9.55;2.72;;;3.60;99.90;;;;;;4905262;29;20086;-83
2021/12/07 02:51:29;;;;;;;7.28;2.30;;;3.70;99.90;;;;;;4904766;29;20078;-83
2021/12/07 02:53:56;;;;;;;9.57;2.17;;;4.20;99.90;;;;;;4885603;29;20052;-84
2021/12/07 02:56:22;;;;;;;8.27;2.10;;;3.80;99.90;;;;;;4904970;29;20059;-83
2021/12/07 02:58:48;;;;;;;6.95;1.55;;;5.50;99.90;;;;;;4887032;29;20048;-83
2021/12/07 03:01:25;;;;;;;10.60;1.75;;;5.30;99.90;;;;;;4898413;29;20066;-84
2021/12/07 03:04:02;;;;;;;8.75;1.60;;;4.50;99.90;;;;;;4923724;29;20556;-82
2021/12/07 03:06:44;;;;;;;7.00;1.30;;;4.80;99.90;;;;;;4908102;29;20055;-82
2021/12/07 03:28:08;;;;;;;6.22;1.42;;;4.50;99.90;;;;;;4922360;29;20453;-83
2021/12/07 03:30:35;;;;;;;4.25;1.20;;;4.60;99.90;;;;;;4923227;29;20460;-83
2021/12/07 03:33:03;;;;;;;3.47;0.95;;;4.60;99.90;;;;;;4913087;29;20040;-83
2021/12/07 03:35:29;;;;;;;6.13;1.13;;;4.60;99.90;;;;;;4905929;29;20059;-83
2021/12/07 03:37:55;;;;;;;7.00;1.05;;;4.80;99.90;;;;;;4928414;29;20409;-84
2021/12/07 03:40:22;;;;;;;6.38;1.40;;;4.60;99.90;;;;;;4921940;29;20058;-82
2021/12/07 03:42:48;;;;;;;7.93;1.55;;;4.80;99.90;;;;;;4906567;29;20506;-82
2021/12/07 03:45:14;;;;;;;3.72;1.23;;;4.70;99.90;;;;;;4907446;29;20079;-82
2021/12/07 03:47:40;;;;;;;3.35;1.00;;;5.60;99.90;;;;;;4907156;29;20056;-83
2021/12/07 03:50:08;;;;;;;7.90;1.25;;;3.80;99.90;;;;;;4921625;29;20050;-82
2021/12/07 03:52:34;;;;;;;6.32;1.30;;;4.60;99.90;;;;;;4921393;29;20051;-82
2021/12/07 03:55:00;;;;;;;6.80;1.58;;;4.60;99.90;;;;;;4906323;29;20059;-83
2021/12/07 03:57:26;;;;;;;5.88;1.10;;;4.70;99.90;;;;;;4911454;29;20047;-82
2021/12/07 03:59:52;;;;;;;7.47;1.60;;;4.60;99.90;;;;;;4898704;29;20048;-82
2021/12/07 04:02:18;;;;;;;6.25;1.33;;;5.60;99.90;;;;;;4920077;29;20055;-82
2021/12/07 04:04:44;;;;;;;6.53;1.50;;;4.60;99.90;;;;;;4913297;29;20104;-82
2021/12/07 04:07:10;;;;;;;6.20;1.58;;;5.40;99.90;;;;;;4904745;29;20143;-83
2021/12/07 04:09:36;;;;;;;6.22;1.38;;;5.50;99.90;;;;;;4912704;29;20178;-82
2021/12/07 04:12:02;;;;;;;5.88;1.33;;;4.60;99.90;;;;;;4895868;29;20048;-83
2021/12/07 04:14:28;;;;;;;10.10;1.45;;;4.70;99.90;;;;;;4923210;29;20043;-83
2021/12/07 04:16:54;;;;;;;8.68;1.45;;;5.10;99.90;;;;;;4911768;29;20079;-82
2021/12/07 04:19:19;;;;;;;7.95;1.40;;;5.00;99.90;;;;;;4922103;29;20494;-82
2021/12/07 04:21:45;;;;;;;5.65;1.35;;;5.00;99.90;;;;;;4903957;29;20048;-82
2021/12/07 04:24:11;;;;;;;7.97;1.30;;;5.10;99.90;;;;;;4921869;29;20107;-83
2021/12/07 04:26:38;;;;;;;6.13;1.30;;;5.00;99.90;;;;;;4906800;29;20481;-83
2021/12/07 04:29:03;;;;;;;8.52;1.50;;;4.90;99.90;;;;;;4903047;29;20528;-82
2021/12/07 04:31:30;;;;;;;8.27;1.50;;;5.00;99.90;;;;;;4897509;29;20056;-83
2021/12/07 04:33:56;;;;;;;4.78;1.55;;;5.80;99.90;;;;;;4922713;29;20054;-82
2021/12/07 04:36:22;;;;;;;4.13;1.20;;;4.90;99.90;;;;;;4911406;29;20888;-83
2021/12/07 04:38:48;;;;;;;5.25;1.48;;;;;;;;;;4922313;29;20126;-82
2021/12/07 04:41:16;;;;;;;7.22;1.35;;;4.80;99.90;;;;;;4903853;29;20410;-82
2021/12/07 04:43:42;;;;;;;5.65;1.30;;;4.70;99.90;;;;;;4920905;29;20098;-83
2021/12/07 04:46:19;;;;;;;4.00;1.05;;;4.60;99.90;;;;;;4921243;29;20059;-82
2021/12/07 05:00:19;;;;;;;11.38;1.73;;;5.20;99.90;;;;;;4922497;29;20099;-83
2021/12/07 05:02:52;;;;;;;5.88;1.40;;;4.20;99.90;;;;;;4925086;29;20481;-83
2021/12/07 05:05:19;;;;;;;6.07;1.67;;;4.20;99.90;;;;;;4940049;29;20501;-83
2021/12/07 05:07:52;;;;;;;7.07;1.45;;;4.10;99.90;;;;;;4908572;29;20114;-83
2021/12/07 05:34:49;;;;;;;9.43;1.73;;;4.90;99.90;;;;;;4929114;29;20143;-81
2021/12/07 05:40:05;;;;;;;7.80;1.48;;;4.40;99.90;;;;;;4932873;29;20051;-81
2021/12/07 05:42:31;;;;;;;8.27;1.80;;;4.40;99.90;;;;;;4927190;29;20059;-80
2021/12/07 05:44:57;;;;;;;8.20;1.52;;;4.40;99.90;;;;;;4916409;29;20051;-82
2021/12/07 05:47:23;;;;;;;7.38;1.33;;;4.90;99.90;;;;;;4907809;29;20043;-81
2021/12/07 05:49:49;;;;;;;10.63;1.83;;;4.30;99.90;;;;;;4931871;29;20048;-81
2021/12/07 05:52:15;;;;;;;5.53;1.30;;;4.30;99.90;;;;;;4907094;29;20058;-80
2021/12/07 05:54:41;;;;;;;4.60;1.73;;;4.30;99.90;;;;;;4911369;29;20044;-81
2021/12/07 05:57:06;;;;;;;4.38;1.63;;;4.20;99.90;;;;;;4924854;29;20050;-82
2021/12/07 05:59:32;;;;;;;5.05;1.60;;;4.50;99.90;;;;;;4900546;29;20047;-80
2021/12/07 06:01:58;;;;;;;7.15;1.52;;;5.40;99.90;;;;;;4914514;29;20103;-81
2021/12/07 06:04:24;;;;;;;6.30;1.40;;;4.30;99.90;;;;;;4884277;29;20070;-81
2021/12/07 06:06:50;;;;;;;5.18;1.20;;;5.20;99.90;;;;;;4906188;29;20079;-81
2021/12/07 06:09:16;;;;;;;10.02;1.63;;;4.50;99.90;;;;;;4923910;29;20769;-81
2021/12/07 06:11:42;;;;;;;4.78;1.35;;;4.60;99.90;;;;;;4928012;29;20465;-80
2021/12/07 06:14:11;;;;;;;6.30;1.60;;;4.60;99.90;;;;;;4923226;29;20485;-82
2021/12/07 06:16:37;;;;;;;11.43;2.00;;;4.60;99.90;;;;;;4925598;29;20506;-81
2021/12/07 06:19:03;;;;;;;7.65;1.52;;;5.40;99.90;;;;;;4928600;29;20429;-81
2021/12/07 06:21:29;;;;;;;7.18;1.70;;;6.00;99.90;;;;;;4930917;29;20244;-81
2021/12/07 06:23:58;;;;;;;7.35;2.15;;;5.10;99.90;;;;;;4912293;29;20478;-80
2021/12/07 06:26:23;;;;;;;11.73;1.88;;;5.70;99.90;;;;;;4927016;29;20520;-80
2021/12/07 06:28:49;;;;;;;6.47;1.80;;;4.60;99.90;;;;;;4930513;29;20059;-81
2021/12/07 06:31:15;;;;;;;8.32;2.03;;;5.40;99.90;;;;;;4905588;29;20055;-81
2021/12/07 06:33:41;;;;;;;6.35;1.70;;;4.50;99.90;;;;;;4942258;28;20051;-81
2021/12/07 06:36:07;;;;;;;6.40;1.80;;;4.50;99.90;;;;;;4911137;29;20129;-81
2021/12/07 06:38:34;;;;;;;11.05;2.22;;;5.30;99.90;;;;;;4930427;29;20039;-81
2021/12/07 06:41:02;;;;;;;10.05;2.00;;;4.60;99.90;;;;;;4934690;29;20457;-81
2021/12/07 06:43:31;;;;;;;7.30;1.77;;;4.60;99.90;;;;;;4928949;29;20047;-81
2021/12/07 06:45:57;;;;;;;10.52;2.40;;;4.60;99.90;;;;;;4931983;29;20127;-81
2021/12/07 06:48:23;;;;;;;8.60;1.83;;;4.50;99.90;;;;;;4927124;29;20051;-81
2021/12/07 06:50:49;;;;;;;13.43;2.20;;;4.60;99.90;;;;;;4909617;29;20052;-81
2021/12/07 06:53:19;;;;;;;7.10;1.70;;;4.60;99.90;;;;;;4906685;29;20086;-81
2021/12/07 06:55:44;;;;;;;5.85;1.63;;;4.60;99.90;;;;;;4924581;29;20508;-81
2021/12/07 06:58:16;;;;;;;6.95;1.80;;;4.60;99.90;;;;;;4910271;29;20044;-81
2021/12/07 07:00:43;;;;;;;6.72;1.50;;;4.60;99.90;;;;;;4925092;29;20059;-81
2021/12/07 07:03:09;;;;;;;9.10;1.73;;;4.60;99.90;;;;;;4910779;29;20051;-81
2021/12/07 07:05:35;;;;;;;12.38;2.22;;;4.10;99.90;;;;;;4907510;29;20036;-81
2021/12/07 07:08:02;;;;;;;9.48;1.65;;;4.90;99.90;;;;;;4914790;29;20481;-80
2021/12/07 07:10:28;;;;;;;5.03;1.73;;;4.70;99.90;;;;;;4910094;29;20047;-81
2021/12/07 07:12:54;;;;;;;7.90;1.80;;;4.80;99.90;;;;;;4926320;29;20047;-82
2021/12/07 07:15:19;;;;;;;7.65;1.45;;;5.50;99.90;;;;;;4925064;29;20059;-81
2021/12/07 07:17:48;;;;;;;7.10;1.35;;;4.80;99.90;;;;;;4908379;29;20471;-81
2021/12/07 07:20:16;;;;;;;8.60;2.05;;;4.80;99.90;;;;;;4913317;29;20074;-81
2021/12/07 07:22:42;;;;;;;8.65;1.60;;;5.10;99.90;;;;;;4929311;29;20549;-82
2021/12/07 07:25:09;;;;;;;9.13;1.92;;;5.50;99.90;;;;;;4910571;29;20044;-80
2021/12/07 07:27:35;;;;;;;8.70;1.83;;;4.80;99.90;;;;;;4909124;29;20055;-80
2021/12/07 07:30:01;;;;;;;9.73;1.77;;;4.80;99.90;;;;;;4926993;29;20047;-81
2021/12/07 07:32:26;;;;;;;9.57;2.03;;;4.90;99.90;;;;;;4944505;28;20122;-81
2021/12/07 07:34:52;;;;;;;7.75;1.55;;;3.50;99.90;;;;;;4924512;29;20051;-81
2021/12/07 07:37:18;;;;;;;7.85;1.75;;;5.00;99.90;;;;;;4930813;29;20042;-81
2021/12/07 07:39:44;;;;;;;12.25;1.70;;;5.60;99.90;;;;;;4921509;29;20043;-81
2021/12/07 07:42:10;;;;;;;5.95;1.50;;;4.90;99.90;;;;;;4922201;29;20493;-80
2021/12/07 07:44:36;;;;;;;4.93;1.50;;;5.40;99.90;;;;;;4928963;29;20079;-80
2021/12/07 07:47:03;;;;;;;6.53;1.58;;;4.90;99.90;;;;;;4941838;28;20413;-80
2021/12/07 07:49:28;;;;;;;3.42;1.17;;;4.90;99.90;;;;;;4941889;28;20046;-80
2021/12/07 07:51:54;;;;;;;8.15;1.73;;;5.00;99.90;;;;;;4911316;29;20051;-81
2021/12/07 07:54:20;;;;;;;5.97;1.30;;;5.00;99.90;;;;;;4911442;29;20137;-80
2021/12/07 07:56:46;;;;;;;7.80;1.50;;;5.00;99.90;;;;;;4925686;28;20186;-80
2021/12/07 07:59:12;;;;;;;5.43;1.42;;;5.00;99.90;;;;;;4932133;29;20489;-81
2021/12/07 08:01:37;;;;;;;6.40;1.50;;;5.10;99.90;;;;;;4925285;29;20110;-80
2021/12/07 08:04:04;;;;;;;6.13;1.30;;;5.10;99.90;;;;;;4906253;29;20531;-81
2021/12/07 08:06:30;;;;;;;4.90;1.08;;;5.20;99.90;;;;;;4915510;29;20043;-80
2021/12/07 08:08:57;;;;;;;5.22;1.40;;;5.80;99.90;;;;;;4925160;29;20125;-81
2021/12/07 08:11:24;;;;;;;8.80;1.70;;;5.20;99.90;;;;;;4928734;29;20047;-81
2021/12/07 08:13:50;;;;;;;4.20;1.30;;;5.20;99.90;;;;;;4933647;29;20133;-81
2021/12/07 08:16:16;;;;;;;6.35;1.67;;;5.30;99.90;;;;;;4942930;28;20485;-81
2021/12/07 08:18:46;;;;;;;8.00;1.58;;;5.30;99.90;;;;;;4893545;29;20046;-81
2021/12/07 08:21:14;;;;;;;5.43;1.65;;;5.30;99.90;;;;;;4928222;29;20388;-81
2021/12/07 08:23:40;;;;;;;8.70;1.67;;;5.90;99.90;;;;;;4911769;29;20109;-81
2021/12/07 08:26:08;;;;;;;6.78;1.55;;;5.30;99.90;;;;;;4932207;29;20043;-81
2021/12/07 08:28:34;;;;;;;6.28;1.50;;;5.60;99.90;;;;;;4926603;29;20047;-81
2021/12/07 08:31:03;;;;;;;6.03;1.65;;;5.90;99.90;;;;;;4930336;29;20098;-81
2021/12/07 08:33:31;;;;;;;5.00;1.35;;;5.80;99.90;;;;;;4926809;29;20510;-82
2021/12/07 08:35:57;;;;;;;5.72;1.70;;;6.30;99.90;;;;;;4924320;29;20050;-81
2021/12/07 08:38:23;;;;;;;6.82;1.65;;;7.10;99.90;;;;;;4925111;29;20504;-81
2021/12/07 08:40:53;;;;;;;6.38;1.63;;;7.80;99.90;;;;;;4909442;29;20134;-82
2021/12/07 08:43:25;;;;;;;6.63;1.63;;;8.40;99.90;;;;;;4907095;29;20079;-82
2021/12/07 08:45:51;;;;;;;5.35;1.58;;;9.00;99.90;;;;;;4909204;29;20078;-80
2021/12/07 08:48:18;;;;;;;5.70;1.80;;;9.50;99.90;;;;;;4924556;29;20050;-83
2021/12/07 08:50:45;;;;;;;5.25;1.73;;;9.80;99.90;;;;;;4895391;29;20101;-83
2021/12/07 08:53:13;;;;;;;8.25;2.00;;;10.10;99.90;;;;;;4915158;29;20058;-82
2021/12/07 09:01:15;;;;;;;6.33;2.40;;;8.90;99.90;;;;;;4924525;29;20062;-82
2021/12/07 09:03:41;;;;;;;8.40;2.20;;;8.20;99.90;;;;;;4922376;29;20050;-82
2021/12/07 09:06:07;;;;;;;10.15;2.13;;;7.70;99.90;;;;;;4922862;29;20043;-82
2021/12/07 09:08:33;;;;;;;7.80;1.80;;;6.10;99.90;;;;;;4908994;29;20497;-81
2021/12/07 09:10:59;;;;;;;9.15;1.77;;;6.90;99.90;;;;;;4923980;29;20066;-81
2021/12/07 09:13:27;;;;;;;10.18;2.08;;;6.80;99.90;;;;;;4923855;29;20047;-82
2021/12/07 09:15:54;;;;;;;9.48;1.65;;;6.60;99.90;;;;;;4923485;29;20102;-82
2021/12/07 09:18:19;;;;;;;7.55;1.83;;;6.50;99.90;;;;;;4930496;29;20066;-81
2021/12/07 09:20:45;;;;;;;6.50;1.88;;;7.70;99.90;;;;;;4923662;29;20047;-81
2021/12/07 09:23:11;;;;;;;6.53;1.60;;;6.50;99.90;;;;;;4941113;29;20059;-82
2021/12/07 09:25:37;;;;;;;8.07;1.80;;;6.50;99.90;;;;;;4924190;29;20073;-82
2021/12/07 09:28:04;;;;;;;7.68;2.38;;;6.40;99.90;;;;;;4931188;29;20051;-82
2021/12/07 09:30:29;;;;;;;7.22;1.63;;;6.60;99.90;;;;;;4930764;29;20083;-82
2021/12/07 09:32:55;;;;;;;6.68;1.80;;;6.80;99.90;;;;;;4923886;29;20446;-82
2021/12/07 09:35:22;;;;;;;6.30;1.70;;;6.90;99.90;;;;;;4931346;29;20071;-82
2021/12/07 09:37:53;;;;;;;6.97;1.92;;;7.80;99.90;;;;;;4930496;29;20039;-81
2021/12/07 09:40:23;;;;;;;5.82;1.30;;;7.20;99.90;;;;;;4909400;29;20111;-82
2021/12/07 09:42:50;;;;;;;8.23;1.70;;;7.50;99.90;;;;;;4932015;29;20543;-80
2021/12/07 09:45:17;;;;;;;7.05;1.60;;;7.90;99.90;;;;;;4924062;29;20160;-81
2021/12/07 09:47:44;;;;;;;10.45;2.47;;;7.90;99.90;;;;;;4939591;29;20051;-81
2021/12/07 09:50:13;;;;;;;9.63;2.00;;;7.80;99.90;;;;;;4923966;29;20062;-82
2021/12/07 09:52:39;;;;;;;4.82;1.63;;;7.90;99.90;;;;;;4931583;29;20455;-82
2021/12/07 09:55:06;;;;;;;7.15;1.98;;;8.00;99.90;;;;;;4923917;29;20054;-81
2021/12/07 09:57:32;;;;;;;11.00;1.85;;;8.30;99.90;;;;;;4916075;29;20103;-82
2021/12/07 09:59:58;;;;;;;5.07;1.67;;;8.60;99.90;;;;;;4923597;29;20555;-82
2021/12/07 10:02:26;;;;;;;6.07;1.80;;;9.40;99.90;;;;;;4941944;28;20081;-83
2021/12/07 10:04:51;;;;;;;6.97;1.80;;;10.10;99.90;;;;;;4943170;29;20056;-82
2021/12/07 10:07:18;;;;;;;6.70;1.88;;;10.20;99.90;;;;;;4911834;29;20134;-82
2021/12/07 10:09:44;;;;;;;6.07;2.00;;;10.30;99.90;;;;;;4928222;29;20485;-82
2021/12/07 10:12:17;;;;;;;7.85;1.60;;;10.00;99.90;;;;;;4928043;29;20075;-82
2021/12/07 10:14:43;;;;;;;6.13;1.55;;;10.20;99.90;;;;;;4930272;29;20155;-81
2021/12/07 10:17:10;;;;;;;7.75;2.15;;;10.20;99.90;;;;;;4926160;29;20142;-81
2021/12/07 10:19:42;;;;;;;8.55;2.15;;;10.20;99.90;;;;;;4926761;29;20083;-82
2021/12/07 10:22:16;;;;;;;6.38;1.75;;;10.80;99.90;;;;;;4926227;29;20059;-88
2021/12/07 10:24:48;;;;;;;5.63;1.50;;;12.20;99.90;;;;;;4940850;29;20497;-83
2021/12/07 10:27:38;;;;;;;7.28;1.65;;;12.20;99.90;;;;;;4927470;29;20104;-81
2021/12/07 10:30:07;;;;;;;6.07;1.65;;;12.50;99.90;;;;;;4911165;29;20053;-82
2021/12/07 10:32:33;;;;;;;7.63;1.80;;;12.30;99.90;;;;;;4931979;29;20079;-83
2021/12/07 10:35:01;;;;;;;8.48;1.80;;;11.90;99.90;;;;;;4927826;29;20055;-82
2021/12/07 10:37:27;;;;;;;8.00;1.67;;;11.60;99.90;;;;;;4908808;29;20085;-82
2021/12/07 10:39:57;;;;;;;8.30;1.88;;;11.10;99.90;;;;;;4908699;29;20401;-82
2021/12/07 10:42:26;;;;;;;6.28;1.45;;;10.40;99.90;;;;;;4927144;29;20047;-83
2021/12/07 10:44:52;;;;;;;4.18;1.40;;;9.80;99.90;;;;;;4927092;29;20063;-82
2021/12/07 10:47:20;;;;;;;7.55;1.48;;;9.30;99.90;;;;;;4912153;29;20122;-82
2021/12/07 10:49:59;;;;;;;7.65;1.90;;;8.80;99.90;;;;;;4932859;29;20047;-82
2021/12/07 10:52:40;;;;;;;8.02;1.90;;;8.50;99.90;;;;;;4911213;29;20055;-82
2021/12/07 10:55:15;;;;;;;6.28;1.75;;;8.10;99.90;;;;;;4926995;29;20130;-81
2021/12/07 10:57:50;;;;;;;5.78;1.90;;;7.90;99.90;;;;;;4927137;29;20146;-82
2021/12/07 11:00:24;;;;;;;6.68;1.70;;;7.70;99.90;;;;;;4929524;29;20063;-84
2021/12/07 11:02:56;;;;;;;6.10;1.92;;;7.50;99.90;;;;;;4926635;29;20051;-83
2021/12/07 11:05:30;;;;;;;8.13;2.05;;;7.40;99.90;;;;;;4926223;29;20051;-82
2021/12/07 11:07:57;;;;;;;9.77;1.75;;;7.30;99.90;;;;;;4929379;29;20134;-83
2021/12/07 11:10:30;;;;;;;6.65;1.95;;;7.30;99.90;;;;;;4910145;29;20057;-83
2021/12/07 11:15:29;;;;;;;5.65;2.08;;;7.10;99.90;;;;;;4924825;29;20054;-83
2021/12/07 11:18:00;;;;;;;6.93;1.85;;;7.10;99.90;;;;;;4926460;29;20047;-83
2021/12/07 11:20:28;;;;;;;9.15;2.20;;;7.00;99.90;;;;;;4926069;29;20043;-82
2021/12/07 11:23:04;;;;;;;10.65;2.78;;;6.30;99.90;;;;;;4928572;29;20051;-82
2021/12/07 11:25:54;;;;;;;7.57;2.03;;;6.90;99.90;;;;;;4930890;29;20055;-83
2021/12/07 11:31:42;;;;;;;9.77;3.03;;;6.90;99.90;;;;;;4926284;29;20099;-82
2021/12/07 11:34:30;;;;;;;8.68;2.65;;;6.90;99.90;;;;;;4925947;29;20135;-81
2021/12/07 11:36:59;;;;;;;6.65;2.40;;;7.00;99.90;;;;;;4926174;29;20560;-82
2021/12/07 11:39:31;;;;;;;8.07;2.65;;;7.10;99.90;;;;;;4927488;29;20047;-82
2021/12/07 11:42:06;;;;;;;8.32;2.63;;;7.20;99.90;;;;;;4925552;29;20050;-83
2021/12/07 11:44:36;;;;;;;5.10;2.13;;;7.20;99.90;;;;;;4925500;29;20039;-84
2021/12/07 11:47:03;;;;;;;10.73;2.22;;;7.20;99.90;;;;;;4924130;29;20481;-83
2021/12/07 11:49:33;;;;;;;10.05;2.55;;;7.20;99.90;;;;;;4922809;29;20134;-83
2021/12/07 11:52:01;;;;;;;11.05;2.58;;;7.20;99.90;;;;;;4926686;29;20051;-82
2021/12/07 11:54:30;;;;;;;10.27;2.90;;;7.20;99.90;;;;;;4931041;29;20058;-84
2021/12/07 11:56:58;;;;;;;8.80;2.47;;;7.20;99.90;;;;;;4925512;29;20141;-83
2021/12/07 11:59:23;;;;;;;8.93;2.90;;;7.10;99.90;;;;;;4924808;29;20058;-83
2021/12/07 12:01:50;;;;;;;9.15;2.83;;;7.10;99.90;;;;;;4928364;29;20218;-85
2021/12/07 12:04:20;;;;;;;9.10;3.25;;;7.90;99.90;;;;;;4927171;29;20046;-84
2021/12/07 12:06:48;;;;;;;11.25;3.22;;;7.00;99.90;;;;;;4894025;29;20135;-83
2021/12/07 12:09:14;;;;;;;4.55;2.50;;;7.00;99.90;;;;;;4925567;29;20062;-83
2021/12/07 12:11:54;;;;;;;7.97;2.83;;;7.00;99.90;;;;;;4924522;29;20099;-83
2021/12/07 12:14:35;;;;;;;10.40;2.90;;;6.90;99.90;;;;;;4924562;29;20143;-83
2021/12/07 12:17:13;;;;;;;7.38;2.95;;;6.80;99.90;;;;;;4926789;29;20047;-83
2021/12/07 12:19:39;;;;;;;12.60;4.20;;;6.80;99.90;;;;;;4926557;29;20071;-83
2021/12/07 12:22:22;;;;;;;6.72;3.00;;;6.80;99.90;;;;;;4941771;28;20441;-84
2021/12/07 12:25:00;;;;;;;8.88;3.20;;;7.10;99.90;;;;;;4930715;29;20070;-83
2021/12/07 12:27:31;;;;;;;7.75;3.20;;;6.70;99.90;;;;;;4926274;29;20107;-84
2021/12/07 12:29:59;;;;;;;8.80;3.22;;;6.60;99.90;;;;;;4925275;29;20473;-84
2021/12/07 12:32:45;;;;;;;6.78;2.90;;;6.60;99.90;;;;;;4931092;29;20485;-83
2021/12/07 12:35:13;;;;;;;8.23;2.80;;;6.70;99.90;;;;;;4941040;28;20167;-83
2021/12/07 12:37:47;;;;;;;9.25;2.70;;;6.60;99.90;;;;;;4910619;29;20067;-83
2021/12/07 12:40:21;;;;;;;8.85;2.83;;;6.60;99.90;;;;;;4932092;29;20083;-82
2021/12/07 12:42:54;;;;;;;6.85;2.58;;;5.30;99.90;;;;;;4925008;29;20055;-84
2021/12/07 12:45:29;;;;;;;12.05;3.58;;;6.60;99.90;;;;;;4925303;29;20047;-84
2021/12/07 12:48:08;;;;;;;8.82;2.83;;;7.50;99.90;;;;;;4926261;29;20498;-84
2021/12/07 12:50:42;;;;;;;8.93;2.80;;;6.60;99.90;;;;;;4924004;29;20509;-83
2021/12/07 12:53:15;;;;;;;6.57;2.65;;;6.50;99.90;;;;;;4925390;29;20109;-83
2021/12/07 12:55:44;;;;;;;7.80;2.75;;;6.50;99.90;;;;;;4925557;29;20130;-83
2021/12/07 12:58:38;;;;;;;8.75;2.90;;;6.40;99.90;;;;;;4925216;29;20094;-83
2021/12/07 13:01:28;;;;;;;7.78;2.50;;;6.50;99.90;;;;;;4926332;29;20051;-83
2021/12/07 13:04:11;;;;;;;10.73;3.67;;;6.40;99.90;;;;;;4900350;29;20288;-83
2021/12/07 13:06:54;;;;;;;10.52;2.78;;;6.50;99.90;;;;;;4925030;29;20149;-85
2021/12/07 13:09:20;;;;;;;8.13;2.45;;;6.30;99.90;;;;;;4925138;29;20058;-83
2021/12/07 13:11:58;;;;;;;8.23;2.60;;;6.30;99.90;;;;;;4923532;29;20055;-82
2021/12/07 13:14:24;;;;;;;9.98;3.00;;;6.30;99.90;;;;;;4941727;28;20070;-83
2021/12/07 13:17:04;;;;;;;9.98;2.90;;;6.30;99.90;;;;;;4922013;29;20083;-83
2021/12/07 13:19:31;;;;;;;7.50;2.60;;;6.30;99.90;;;;;;4931617;29;20059;-83
2021/12/07 13:22:06;;;;;;;8.57;2.60;;;6.20;99.90;;;;;;4924644;29;20115;-83
2021/12/07 13:24:36;;;;;;;11.90;2.42;;;6.20;99.90;;;;;;4923878;29;20071;-83
2021/12/07 13:27:10;;;;;;;7.80;2.97;;;5.60;99.90;;;;;;4925313;29;20078;-83
2021/12/07 13:29:38;;;;;;;12.20;3.17;;;6.10;99.90;;;;;;4924534;29;20047;-84
2021/12/07 13:32:06;;;;;;;10.20;2.65;;;6.10;99.90;;;;;;4930001;29;20058;-83
2021/12/07 13:34:34;;;;;;;9.63;2.97;;;6.10;99.90;;;;;;4932405;29;20081;-84
2021/12/07 13:37:11;;;;;;;8.48;3.00;;;6.00;99.90;;;;;;4930300;29;20063;-83
2021/12/07 13:39:48;;;;;;;7.28;2.85;;;5.90;99.90;;;;;;4920424;29;20047;-83
2021/12/07 13:42:16;;;;;;;12.65;2.88;;;5.90;99.90;;;;;;4927624;29;20553;-82
2021/12/07 13:44:46;;;;;;;8.38;2.70;;;6.60;99.90;;;;;;4934525;29;20071;-84
2021/12/07 13:47:18;;;;;;;10.18;2.65;;;5.80;99.90;;;;;;4926541;29;20090;-83
2021/12/07 13:49:49;;;;;;;10.43;3.20;;;5.70;99.90;;;;;;4928636;29;20059;-84
2021/12/07 13:52:20;;;;;;;13.07;3.95;;;6.90;99.90;;;;;;4928107;29;20840;-83
2021/12/07 13:54:49;;;;;;;9.25;3.33;;;5.90;99.90;;;;;;4932784;29;20540;-84
2021/12/07 13:57:18;;;;;;;9.73;3.50;;;5.60;99.90;;;;;;4933027;29;20493;-82
2021/12/07 13:59:59;;;;;;;10.80;3.08;;;4.60;99.90;;;;;;4932110;29;20517;-83
2021/12/07 14:02:26;;;;;;;7.07;3.13;;;5.50;99.90;;;;;;4926393;29;20087;-81
2021/12/07 14:05:07;;;;;;;10.25;2.95;;;5.50;99.90;;;;;;4912512;29;20052;-83
2021/12/07 14:07:34;;;;;;;9.65;3.28;;;5.40;99.90;;;;;;4928164;29;20532;-83
2021/12/07 14:10:08;;;;;;;8.48;2.92;;;5.40;99.90;;;;;;4916093;29;20130;-85
2021/12/07 14:12:34;;;;;;;13.27;3.10;;;5.40;99.90;;;;;;4928376;29;20070;-84
2021/12/07 14:15:09;;;;;;;8.52;2.90;;;5.40;99.90;;;;;;4893483;29;20047;-84
2021/12/07 14:17:45;;;;;;;10.57;3.42;;;5.30;99.90;;;;;;4913930;29;20039;-83
2021/12/07 14:20:27;;;;;;;15.07;3.22;;;5.30;99.90;;;;;;4929265;29;20498;-84
2021/12/07 14:22:53;;;;;;;11.20;3.30;;;5.30;99.90;;;;;;4929301;29;20098;-84
2021/12/07 14:25:19;;;;;;;13.02;3.40;;;5.60;99.90;;;;;;4934025;29;20538;-85
2021/12/07 14:27:46;;;;;;;10.98;3.08;;;6.50;99.90;;;;;;4918452;29;20488;-83
2021/12/07 14:30:14;;;;;;;9.27;3.42;;;5.10;99.90;;;;;;4933448;29;20473;-84
2021/12/07 14:32:41;;;;;;;11.65;3.70;;;5.10;99.90;;;;;;4925899;29;20058;-84
2021/12/07 14:35:07;;;;;;;8.88;3.00;;;5.10;99.90;;;;;;4932160;29;20042;-83
2021/12/07 14:37:33;;;;;;;9.50;2.88;;;5.00;99.90;;;;;;4911444;29;20087;-82
2021/12/07 14:39:59;;;;;;;8.52;3.10;;;5.00;99.90;;;;;;4934064;29;20493;-82
2021/12/07 14:42:26;;;;;;;13.52;3.47;;;4.90;99.90;;;;;;4910985;29;20047;-82
2021/12/07 14:44:56;;;;;;;12.27;3.78;;;4.90;99.90;;;;;;4901226;29;20056;-83
2021/12/07 14:47:22;;;;;;;12.68;3.88;;;5.80;99.90;;;;;;4927384;28;20051;-83
2021/12/07 14:49:52;;;;;;;10.93;3.95;;;6.10;99.90;;;;;;4932904;29;20795;-83
2021/12/07 14:52:25;;;;;;;7.35;3.88;;;5.90;99.90;;;;;;4933855;29;20134;-84
2021/12/07 14:54:53;;;;;;;10.85;3.72;;;4.80;99.90;;;;;;4930494;28;20106;-82